Time Latitude Longitude Accuracy (66% radius in meters) Altitude (meters) Speed (km/hour) Bearing (degrees) Battery (%) GPS flag
09:25:41 60.402380 30.331310 0 0 0 0 1 delete
09:25:40 60.402380 30.331310 0 0 0 0 1 delete
09:25:36 60.402380 30.331320 0 0 0 0 1 delete
09:25:35 60.402380 30.331300 0 0 0 0 1 delete
09:25:33 60.402380 30.331280 0 0 0 0 1 delete
09:25:31 60.402370 30.331290 0 0 0 0 1 delete
09:25:29 60.402370 30.331330 0 0 0 0 1 delete
09:25:28 60.402370 30.331360 0 0 0 0 1 delete
09:25:27 60.402370 30.331390 0 0 0 0 1 delete
09:25:24 60.402370 30.331490 0 0 0 0 1 delete
09:25:23 60.402370 30.331520 0 0 0 0 1 delete
09:25:22 60.402380 30.331560 0 0 0 0 1 delete
09:25:21 60.402380 30.331590 0 0 0 0 1 delete
09:25:20 60.402380 30.331620 0 0 0 0 1 delete
09:25:17 60.402380 30.331720 0 0 0 0 1 delete
09:25:16 60.402380 30.331760 0 0 0 0 1 delete
09:25:15 60.402380 30.331790 0 0 0 0 1 delete
09:25:13 60.402380 30.331840 0 0 0 0 1 delete
09:25:12 60.402380 30.331880 0 0 0 0 1 delete
09:25:11 60.402380 30.331910 0 0 0 0 1 delete
09:25:10 60.402390 30.331940 0 0 0 0 1 delete
09:25:09 60.402390 30.331960 0 0 0 0 1 delete
09:25:06 60.402400 30.332040 0 0 0 0 1 delete
09:25:05 60.402400 30.332070 0 0 0 0 1 delete
09:25:04 60.402400 30.332100 0 0 0 0 1 delete
09:25:03 60.402400 30.332130 0 0 0 0 1 delete
09:25:02 60.402400 30.332160 0 0 0 0 1 delete
09:25:00 60.402400 30.332230 0 0 0 0 1 delete
09:24:59 60.402400 30.332250 0 0 0 0 1 delete
09:24:58 60.402400 30.332270 0 0 0 0 1 delete
09:24:56 60.402390 30.332290 0 0 0 0 1 delete
09:24:54 60.402390 30.332280 0 0 0 0 1 delete
09:24:53 60.402390 30.332270 0 0 0 0 1 delete
09:24:52 60.402380 30.332280 0 0 0 0 1 delete
09:24:50 60.402370 30.332320 0 0 0 0 1 delete
09:24:49 60.402370 30.332350 0 0 0 0 1 delete
09:24:48 60.402360 30.332380 0 0 0 0 1 delete
09:24:46 60.402340 30.332460 0 0 0 0 1 delete
09:24:45 60.402330 30.332480 0 0 0 0 1 delete
09:24:44 60.402330 30.332510 0 0 0 0 1 delete
09:24:42 60.402330 30.332570 0 0 0 0 1 delete
09:24:41 60.402320 30.332590 0 0 0 0 1 delete
09:24:39 60.402320 30.332660 0 0 0 0 1 delete
09:24:38 60.402320 30.332690 0 0 0 0 1 delete
09:24:37 60.402330 30.332730 0 0 0 0 1 delete
09:24:35 60.402330 30.332790 0 0 0 0 1 delete
09:24:34 60.402340 30.332830 0 0 0 0 1 delete
09:24:33 60.402350 30.332860 0 0 0 0 1 delete
09:24:31 60.402380 30.332900 0 0 0 0 1 delete
09:24:28 60.402420 30.332960 0 0 0 0 1 delete